sensor_id;sensor_type;location;lat;lon;timestamp;P1;durP1;ratioP1;P2;durP2;ratioP2
16330;SDS011;8275;48.206;16.340;2023-08-06T00:00:39;0.40;;;0.40;;
16330;SDS011;8275;48.206;16.340;2023-08-06T00:03:08;1.17;;;0.50;;
16330;SDS011;8275;48.206;16.340;2023-08-06T00:05:41;0.40;;;0.40;;
16330;SDS011;8275;48.206;16.340;2023-08-06T00:08:10;0.50;;;0.50;;
16330;SDS011;8275;48.206;16.340;2023-08-06T00:10:39;0.30;;;0.30;;
16330;SDS011;8275;48.206;16.340;2023-08-06T00:13:08;0.32;;;0.32;;
16330;SDS011;8275;48.206;16.340;2023-08-06T00:15:36;0.30;;;0.30;;
16330;SDS011;8275;48.206;16.340;2023-08-06T00:18:05;0.55;;;0.50;;
16330;SDS011;8275;48.206;16.340;2023-08-06T00:20:34;0.65;;;0.30;;
16330;SDS011;8275;48.206;16.340;2023-08-06T00:23:06;1.02;;;0.45;;
16330;SDS011;8275;48.206;16.340;2023-08-06T00:25:52;0.30;;;0.30;;
16330;SDS011;8275;48.206;16.340;2023-08-06T00:28:20;1.30;;;0.50;;
16330;SDS011;8275;48.206;16.340;2023-08-06T00:30:52;0.40;;;0.40;;
16330;SDS011;8275;48.206;16.340;2023-08-06T00:33:21;0.43;;;0.43;;
16330;SDS011;8275;48.206;16.340;2023-08-06T00:35:51;0.70;;;0.52;;
16330;SDS011;8275;48.206;16.340;2023-08-06T00:38:20;0.32;;;0.32;;
16330;SDS011;8275;48.206;16.340;2023-08-06T00:40:48;0.40;;;0.40;;
16330;SDS011;8275;48.206;16.340;2023-08-06T00:43:17;0.50;;;0.50;;
16330;SDS011;8275;48.206;16.340;2023-08-06T00:45:45;0.50;;;0.50;;
16330;SDS011;8275;48.206;16.340;2023-08-06T00:48:14;0.55;;;0.50;;
16330;SDS011;8275;48.206;16.340;2023-08-06T00:50:43;0.60;;;0.60;;
16330;SDS011;8275;48.206;16.340;2023-08-06T00:53:13;0.98;;;0.65;;
16330;SDS011;8275;48.206;16.340;2023-08-06T00:55:43;0.85;;;0.50;;
16330;SDS011;8275;48.206;16.340;2023-08-06T00:58:13;1.02;;;0.30;;
16330;SDS011;8275;48.206;16.340;2023-08-06T01:00:44;0.30;;;0.30;;
16330;SDS011;8275;48.206;16.340;2023-08-06T01:03:13;0.82;;;0.40;;
16330;SDS011;8275;48.206;16.340;2023-08-06T01:05:42;0.28;;;0.28;;
16330;SDS011;8275;48.206;16.340;2023-08-06T01:08:15;0.40;;;0.40;;
16330;SDS011;8275;48.206;16.340;2023-08-06T01:10:59;0.40;;;0.40;;
16330;SDS011;8275;48.206;16.340;2023-08-06T01:13:41;0.50;;;0.50;;
16330;SDS011;8275;48.206;16.340;2023-08-06T01:16:14;0.20;;;0.20;;
16330;SDS011;8275;48.206;16.340;2023-08-06T01:18:44;0.38;;;0.32;;
16330;SDS011;8275;48.206;16.340;2023-08-06T01:21:18;0.73;;;0.30;;
16330;SDS011;8275;48.206;16.340;2023-08-06T01:23:47;0.52;;;0.50;;
16330;SDS011;8275;48.206;16.340;2023-08-06T01:26:18;0.50;;;0.50;;
16330;SDS011;8275;48.206;16.340;2023-08-06T01:28:55;0.93;;;0.40;;
16330;SDS011;8275;48.206;16.340;2023-08-06T01:31:31;0.32;;;0.32;;
16330;SDS011;8275;48.206;16.340;2023-08-06T01:34:04;0.30;;;0.30;;
16330;SDS011;8275;48.206;16.340;2023-08-06T01:36:39;0.30;;;0.30;;
16330;SDS011;8275;48.206;16.340;2023-08-06T01:39:08;0.30;;;0.28;;
16330;SDS011;8275;48.206;16.340;2023-08-06T01:41:37;1.63;;;0.38;;
16330;SDS011;8275;48.206;16.340;2023-08-06T01:44:06;0.50;;;0.50;;
16330;SDS011;8275;48.206;16.340;2023-08-06T01:46:34;0.22;;;0.22;;
16330;SDS011;8275;48.206;16.340;2023-08-06T01:49:03;0.35;;;0.35;;
16330;SDS011;8275;48.206;16.340;2023-08-06T01:51:31;0.55;;;0.55;;
16330;SDS011;8275;48.206;16.340;2023-08-06T01:54:01;0.77;;;0.77;;
16330;SDS011;8275;48.206;16.340;2023-08-06T01:56:30;0.50;;;0.50;;
16330;SDS011;8275;48.206;16.340;2023-08-06T01:58:58;0.43;;;0.43;;
16330;SDS011;8275;48.206;16.340;2023-08-06T02:01:30;0.60;;;0.60;;
16330;SDS011;8275;48.206;16.340;2023-08-06T02:03:59;0.40;;;0.40;;
16330;SDS011;8275;48.206;16.340;2023-08-06T02:06:27;0.40;;;0.40;;
16330;SDS011;8275;48.206;16.340;2023-08-06T02:08:56;0.73;;;0.63;;
16330;SDS011;8275;48.206;16.340;2023-08-06T02:11:26;0.85;;;0.60;;
16330;SDS011;8275;48.206;16.340;2023-08-06T02:13:55;1.30;;;0.73;;
16330;SDS011;8275;48.206;16.340;2023-08-06T02:16:23;0.90;;;0.68;;
16330;SDS011;8275;48.206;16.340;2023-08-06T02:18:51;0.50;;;0.50;;
16330;SDS011;8275;48.206;16.340;2023-08-06T02:21:19;0.80;;;0.80;;
16330;SDS011;8275;48.206;16.340;2023-08-06T02:23:48;0.95;;;0.70;;
16330;SDS011;8275;48.206;16.340;2023-08-06T02:26:16;0.80;;;0.80;;
16330;SDS011;8275;48.206;16.340;2023-08-06T02:28:46;0.88;;;0.85;;
16330;SDS011;8275;48.206;16.340;2023-08-06T02:31:15;0.70;;;0.70;;
16330;SDS011;8275;48.206;16.340;2023-08-06T02:33:43;0.93;;;0.75;;
16330;SDS011;8275;48.206;16.340;2023-08-06T02:36:12;0.73;;;0.73;;
16330;SDS011;8275;48.206;16.340;2023-08-06T02:38:40;0.60;;;0.60;;
16330;SDS011;8275;48.206;16.340;2023-08-06T02:41:09;0.65;;;0.65;;
16330;SDS011;8275;48.206;16.340;2023-08-06T02:43:37;0.70;;;0.70;;
16330;SDS011;8275;48.206;16.340;2023-08-06T02:46:07;0.75;;;0.75;;
16330;SDS011;8275;48.206;16.340;2023-08-06T02:48:36;3.17;;;1.13;;
16330;SDS011;8275;48.206;16.340;2023-08-06T02:51:05;1.10;;;0.90;;
16330;SDS011;8275;48.206;16.340;2023-08-06T02:53:33;1.10;;;1.00;;
16330;SDS011;8275;48.206;16.340;2023-08-06T02:56:02;0.95;;;0.93;;
16330;SDS011;8275;48.206;16.340;2023-08-06T02:58:30;1.00;;;1.00;;
16330;SDS011;8275;48.206;16.340;2023-08-06T03:00:59;2.05;;;1.00;;
16330;SDS011;8275;48.206;16.340;2023-08-06T03:03:31;1.30;;;1.20;;
16330;SDS011;8275;48.206;16.340;2023-08-06T03:06:00;4.88;;;1.05;;
16330;SDS011;8275;48.206;16.340;2023-08-06T03:08:28;1.20;;;1.10;;
16330;SDS011;8275;48.206;16.340;2023-08-06T03:10:57;1.00;;;1.00;;
16330;SDS011;8275;48.206;16.340;2023-08-06T03:13:25;2.08;;;1.35;;
16330;SDS011;8275;48.206;16.340;2023-08-06T03:15:55;1.00;;;1.00;;
16330;SDS011;8275;48.206;16.340;2023-08-06T03:18:24;1.02;;;1.02;;
16330;SDS011;8275;48.206;16.340;2023-08-06T03:20:54;1.38;;;1.27;;
16330;SDS011;8275;48.206;16.340;2023-08-06T03:23:23;1.13;;;0.95;;
16330;SDS011;8275;48.206;16.340;2023-08-06T03:25:51;1.67;;;1.45;;
16330;SDS011;8275;48.206;16.340;2023-08-06T03:28:20;1.15;;;1.15;;
16330;SDS011;8275;48.206;16.340;2023-08-06T03:30:58;1.42;;;1.33;;
16330;SDS011;8275;48.206;16.340;2023-08-06T03:33:27;1.55;;;1.45;;
16330;SDS011;8275;48.206;16.340;2023-08-06T03:35:57;1.30;;;1.30;;
16330;SDS011;8275;48.206;16.340;2023-08-06T03:38:26;1.60;;;1.50;;
16330;SDS011;8275;48.206;16.340;2023-08-06T03:40:55;1.90;;;1.80;;
16330;SDS011;8275;48.206;16.340;2023-08-06T03:43:23;2.15;;;1.88;;
16330;SDS011;8275;48.206;16.340;2023-08-06T03:45:52;1.00;;;1.00;;
16330;SDS011;8275;48.206;16.340;2023-08-06T03:48:20;1.70;;;1.60;;
16330;SDS011;8275;48.206;16.340;2023-08-06T03:50:49;1.73;;;1.63;;
16330;SDS011;8275;48.206;16.340;2023-08-06T03:53:19;1.77;;;1.67;;
16330;SDS011;8275;48.206;16.340;2023-08-06T03:55:47;1.50;;;1.40;;
16330;SDS011;8275;48.206;16.340;2023-08-06T03:58:16;2.20;;;1.63;;
16330;SDS011;8275;48.206;16.340;2023-08-06T04:00:44;2.10;;;1.85;;
16330;SDS011;8275;48.206;16.340;2023-08-06T04:03:13;2.00;;;1.83;;
16330;SDS011;8275;48.206;16.340;2023-08-06T04:05:41;1.60;;;1.50;;
16330;SDS011;8275;48.206;16.340;2023-08-06T04:08:10;1.73;;;1.63;;
16330;SDS011;8275;48.206;16.340;2023-08-06T04:10:40;2.00;;;1.90;;
16330;SDS011;8275;48.206;16.340;2023-08-06T04:13:08;1.58;;;1.48;;
16330;SDS011;8275;48.206;16.340;2023-08-06T04:15:37;1.30;;;1.30;;
16330;SDS011;8275;48.206;16.340;2023-08-06T04:18:05;1.90;;;1.80;;
16330;SDS011;8275;48.206;16.340;2023-08-06T04:20:34;1.77;;;1.67;;
16330;SDS011;8275;48.206;16.340;2023-08-06T04:23:05;2.70;;;1.90;;
16330;SDS011;8275;48.206;16.340;2023-08-06T04:25:34;2.20;;;2.00;;
16330;SDS011;8275;48.206;16.340;2023-08-06T04:28:04;1.65;;;1.55;;
16330;SDS011;8275;48.206;16.340;2023-08-06T04:30:32;1.85;;;1.60;;
16330;SDS011;8275;48.206;16.340;2023-08-06T04:33:01;1.45;;;1.40;;
16330;SDS011;8275;48.206;16.340;2023-08-06T04:35:29;1.48;;;1.40;;
16330;SDS011;8275;48.206;16.340;2023-08-06T04:37:58;1.63;;;1.52;;
16330;SDS011;8275;48.206;16.340;2023-08-06T04:40:26;1.65;;;1.55;;
16330;SDS011;8275;48.206;16.340;2023-08-06T04:42:55;1.83;;;1.58;;
16330;SDS011;8275;48.206;16.340;2023-08-06T04:45:25;1.80;;;1.70;;
16330;SDS011;8275;48.206;16.340;2023-08-06T04:47:53;1.55;;;1.45;;
16330;SDS011;8275;48.206;16.340;2023-08-06T04:50:22;2.20;;;1.88;;
16330;SDS011;8275;48.206;16.340;2023-08-06T04:52:51;1.98;;;1.88;;
16330;SDS011;8275;48.206;16.340;2023-08-06T04:55:19;1.90;;;1.70;;
16330;SDS011;8275;48.206;16.340;2023-08-06T04:57:48;1.73;;;1.63;;
16330;SDS011;8275;48.206;16.340;2023-08-06T05:00:16;1.70;;;1.60;;
16330;SDS011;8275;48.206;16.340;2023-08-06T05:02:46;1.90;;;1.80;;
16330;SDS011;8275;48.206;16.340;2023-08-06T05:05:15;1.70;;;1.60;;
16330;SDS011;8275;48.206;16.340;2023-08-06T05:07:45;1.80;;;1.70;;
16330;SDS011;8275;48.206;16.340;2023-08-06T05:10:16;3.42;;;1.83;;
16330;SDS011;8275;48.206;16.340;2023-08-06T05:12:45;1.60;;;1.50;;
16330;SDS011;8275;48.206;16.340;2023-08-06T05:15:13;1.58;;;1.48;;
16330;SDS011;8275;48.206;16.340;2023-08-06T05:17:42;1.42;;;1.33;;
16330;SDS011;8275;48.206;16.340;2023-08-06T05:20:12;2.85;;;1.70;;
16330;SDS011;8275;48.206;16.340;2023-08-06T05:22:41;2.25;;;1.70;;
16330;SDS011;8275;48.206;16.340;2023-08-06T05:25:11;1.63;;;1.52;;
16330;SDS011;8275;48.206;16.340;2023-08-06T05:27:41;2.10;;;2.00;;
16330;SDS011;8275;48.206;16.340;2023-08-06T05:30:09;1.73;;;1.63;;
16330;SDS011;8275;48.206;16.340;2023-08-06T05:32:38;1.80;;;1.70;;
16330;SDS011;8275;48.206;16.340;2023-08-06T05:35:07;3.25;;;1.58;;
16330;SDS011;8275;48.206;16.340;2023-08-06T05:37:37;1.67;;;1.58;;
16330;SDS011;8275;48.206;16.340;2023-08-06T05:40:06;1.90;;;1.80;;
16330;SDS011;8275;48.206;16.340;2023-08-06T05:42:36;1.67;;;1.58;;
16330;SDS011;8275;48.206;16.340;2023-08-06T05:45:05;1.92;;;1.80;;
16330;SDS011;8275;48.206;16.340;2023-08-06T05:47:34;2.03;;;1.92;;
16330;SDS011;8275;48.206;16.340;2023-08-06T05:50:03;1.75;;;1.65;;
16330;SDS011;8275;48.206;16.340;2023-08-06T05:52:33;4.00;;;2.28;;
16330;SDS011;8275;48.206;16.340;2023-08-06T05:55:03;2.20;;;1.70;;
16330;SDS011;8275;48.206;16.340;2023-08-06T05:57:33;1.88;;;1.50;;
16330;SDS011;8275;48.206;16.340;2023-08-06T06:00:01;1.50;;;1.40;;
16330;SDS011;8275;48.206;16.340;2023-08-06T06:02:32;2.00;;;1.90;;
16330;SDS011;8275;48.206;16.340;2023-08-06T06:05:01;1.80;;;1.70;;
16330;SDS011;8275;48.206;16.340;2023-08-06T06:07:30;1.90;;;1.80;;
16330;SDS011;8275;48.206;16.340;2023-08-06T06:09:58;2.05;;;1.70;;
16330;SDS011;8275;48.206;16.340;2023-08-06T06:12:28;1.70;;;1.60;;
16330;SDS011;8275;48.206;16.340;2023-08-06T06:14:57;1.60;;;1.50;;
16330;SDS011;8275;48.206;16.340;2023-08-06T06:17:27;1.73;;;1.63;;
16330;SDS011;8275;48.206;16.340;2023-08-06T06:19:57;1.63;;;1.52;;
16330;SDS011;8275;48.206;16.340;2023-08-06T06:22:25;1.95;;;1.77;;
16330;SDS011;8275;48.206;16.340;2023-08-06T06:24:54;2.22;;;1.90;;
16330;SDS011;8275;48.206;16.340;2023-08-06T06:27:22;1.95;;;1.85;;
16330;SDS011;8275;48.206;16.340;2023-08-06T06:29:52;2.03;;;1.50;;
16330;SDS011;8275;48.206;16.340;2023-08-06T06:32:21;4.03;;;1.83;;
16330;SDS011;8275;48.206;16.340;2023-08-06T06:34:49;2.47;;;1.52;;
16330;SDS011;8275;48.206;16.340;2023-08-06T06:37:18;1.67;;;1.58;;
16330;SDS011;8275;48.206;16.340;2023-08-06T06:39:46;2.55;;;1.65;;
16330;SDS011;8275;48.206;16.340;2023-08-06T06:42:15;2.00;;;1.90;;
16330;SDS011;8275;48.206;16.340;2023-08-06T06:44:43;1.55;;;1.45;;
16330;SDS011;8275;48.206;16.340;2023-08-06T06:47:13;1.48;;;1.38;;
16330;SDS011;8275;48.206;16.340;2023-08-06T06:49:42;2.00;;;1.90;;
16330;SDS011;8275;48.206;16.340;2023-08-06T06:52:10;2.00;;;1.90;;
16330;SDS011;8275;48.206;16.340;2023-08-06T06:54:39;1.67;;;1.58;;
16330;SDS011;8275;48.206;16.340;2023-08-06T06:57:07;1.95;;;1.70;;
16330;SDS011;8275;48.206;16.340;2023-08-06T06:59:36;1.90;;;1.80;;
16330;SDS011;8275;48.206;16.340;2023-08-06T07:02:05;1.73;;;1.63;;
16330;SDS011;8275;48.206;16.340;2023-08-06T07:04:35;2.05;;;1.92;;
16330;SDS011;8275;48.206;16.340;2023-08-06T07:07:04;1.77;;;1.67;;
16330;SDS011;8275;48.206;16.340;2023-08-06T07:09:33;1.58;;;1.48;;
16330;SDS011;8275;48.206;16.340;2023-08-06T07:12:01;2.22;;;1.48;;
16330;SDS011;8275;48.206;16.340;2023-08-06T07:14:30;1.67;;;1.58;;
16330;SDS011;8275;48.206;16.340;2023-08-06T07:16:59;2.38;;;1.80;;
16330;SDS011;8275;48.206;16.340;2023-08-06T07:19:27;1.20;;;1.20;;
16330;SDS011;8275;48.206;16.340;2023-08-06T07:21:57;1.42;;;1.33;;
16330;SDS011;8275;48.206;16.340;2023-08-06T07:24:26;1.33;;;1.20;;
16330;SDS011;8275;48.206;16.340;2023-08-06T07:26:54;1.42;;;1.33;;
16330;SDS011;8275;48.206;16.340;2023-08-06T07:29:22;1.45;;;1.35;;
16330;SDS011;8275;48.206;16.340;2023-08-06T07:31:51;9.27;;;1.50;;
16330;SDS011;8275;48.206;16.340;2023-08-06T07:34:20;1.90;;;1.80;;
16330;SDS011;8275;48.206;16.340;2023-08-06T07:36:48;1.55;;;1.45;;
16330;SDS011;8275;48.206;16.340;2023-08-06T07:39:18;2.05;;;1.67;;
16330;SDS011;8275;48.206;16.340;2023-08-06T07:41:48;1.40;;;1.30;;
16330;SDS011;8275;48.206;16.340;2023-08-06T07:44:17;2.25;;;2.15;;
16330;SDS011;8275;48.206;16.340;2023-08-06T07:46:46;1.65;;;1.55;;
16330;SDS011;8275;48.206;16.340;2023-08-06T07:49:14;2.08;;;1.98;;
16330;SDS011;8275;48.206;16.340;2023-08-06T07:51:43;3.50;;;1.83;;
16330;SDS011;8275;48.206;16.340;2023-08-06T07:54:11;2.10;;;2.00;;
16330;SDS011;8275;48.206;16.340;2023-08-06T07:56:41;1.73;;;1.50;;
16330;SDS011;8275;48.206;16.340;2023-08-06T07:59:10;1.95;;;1.85;;
16330;SDS011;8275;48.206;16.340;2023-08-06T08:01:38;1.65;;;1.55;;
16330;SDS011;8275;48.206;16.340;2023-08-06T08:04:07;2.10;;;1.60;;
16330;SDS011;8275;48.206;16.340;2023-08-06T08:06:35;2.00;;;1.90;;
16330;SDS011;8275;48.206;16.340;2023-08-06T08:09:04;1.70;;;1.60;;
16330;SDS011;8275;48.206;16.340;2023-08-06T08:11:32;2.95;;;2.03;;
16330;SDS011;8275;48.206;16.340;2023-08-06T08:14:02;1.65;;;1.55;;
16330;SDS011;8275;48.206;16.340;2023-08-06T08:16:31;1.77;;;1.67;;
16330;SDS011;8275;48.206;16.340;2023-08-06T08:18:59;1.65;;;1.55;;
16330;SDS011;8275;48.206;16.340;2023-08-06T08:21:30;1.60;;;1.50;;
16330;SDS011;8275;48.206;16.340;2023-08-06T08:23:59;1.67;;;1.58;;
16330;SDS011;8275;48.206;16.340;2023-08-06T08:26:28;1.65;;;1.55;;
16330;SDS011;8275;48.206;16.340;2023-08-06T08:28:56;1.70;;;1.60;;
16330;SDS011;8275;48.206;16.340;2023-08-06T08:31:27;2.05;;;1.90;;
16330;SDS011;8275;48.206;16.340;2023-08-06T08:33:56;2.08;;;1.67;;
16330;SDS011;8275;48.206;16.340;2023-08-06T08:36:25;1.80;;;1.70;;
16330;SDS011;8275;48.206;16.340;2023-08-06T08:38:54;1.50;;;1.40;;
16330;SDS011;8275;48.206;16.340;2023-08-06T08:41:23;1.75;;;1.65;;
16330;SDS011;8275;48.206;16.340;2023-08-06T08:43:51;1.65;;;1.45;;
16330;SDS011;8275;48.206;16.340;2023-08-06T08:46:21;2.08;;;1.98;;
16330;SDS011;8275;48.206;16.340;2023-08-06T08:48:52;2.10;;;2.00;;
16330;SDS011;8275;48.206;16.340;2023-08-06T08:51:22;2.63;;;2.20;;
16330;SDS011;8275;48.206;16.340;2023-08-06T08:53:51;1.83;;;1.73;;
16330;SDS011;8275;48.206;16.340;2023-08-06T08:56:22;2.20;;;1.85;;
16330;SDS011;8275;48.206;16.340;2023-08-06T08:58:51;2.00;;;1.90;;
16330;SDS011;8275;48.206;16.340;2023-08-06T09:01:21;2.78;;;2.00;;
16330;SDS011;8275;48.206;16.340;2023-08-06T09:03:51;2.25;;;2.15;;
16330;SDS011;8275;48.206;16.340;2023-08-06T09:06:22;2.28;;;1.98;;
16330;SDS011;8275;48.206;16.340;2023-08-06T09:08:56;2.60;;;2.40;;
16330;SDS011;8275;48.206;16.340;2023-08-06T09:11:32;2.33;;;2.13;;
16330;SDS011;8275;48.206;16.340;2023-08-06T09:14:07;2.50;;;2.30;;
16330;SDS011;8275;48.206;16.340;2023-08-06T09:16:36;2.60;;;2.42;;
16330;SDS011;8275;48.206;16.340;2023-08-06T09:19:09;2.72;;;2.53;;
16330;SDS011;8275;48.206;16.340;2023-08-06T09:21:39;2.63;;;2.40;;
16330;SDS011;8275;48.206;16.340;2023-08-06T09:24:09;2.10;;;2.00;;
16330;SDS011;8275;48.206;16.340;2023-08-06T09:26:40;2.60;;;2.40;;
16330;SDS011;8275;48.206;16.340;2023-08-06T09:29:10;3.00;;;2.72;;
16330;SDS011;8275;48.206;16.340;2023-08-06T09:31:40;2.97;;;2.60;;
16330;SDS011;8275;48.206;16.340;2023-08-06T09:34:15;3.10;;;2.55;;
16330;SDS011;8275;48.206;16.340;2023-08-06T09:36:46;2.28;;;2.17;;
16330;SDS011;8275;48.206;16.340;2023-08-06T09:39:18;2.72;;;2.53;;
16330;SDS011;8275;48.206;16.340;2023-08-06T09:41:48;2.25;;;2.10;;
16330;SDS011;8275;48.206;16.340;2023-08-06T09:44:24;2.70;;;2.50;;
16330;SDS011;8275;48.206;16.340;2023-08-06T09:46:54;5.75;;;2.67;;
16330;SDS011;8275;48.206;16.340;2023-08-06T09:49:27;4.25;;;2.53;;
16330;SDS011;8275;48.206;16.340;2023-08-06T09:52:09;4.13;;;2.72;;
16330;SDS011;8275;48.206;16.340;2023-08-06T09:54:40;2.17;;;2.08;;
16330;SDS011;8275;48.206;16.340;2023-08-06T09:57:10;2.45;;;2.25;;
16330;SDS011;8275;48.206;16.340;2023-08-06T09:59:40;2.03;;;1.73;;
16330;SDS011;8275;48.206;16.340;2023-08-06T10:02:12;2.22;;;1.90;;
16330;SDS011;8275;48.206;16.340;2023-08-06T10:04:43;1.80;;;1.70;;
16330;SDS011;8275;48.206;16.340;2023-08-06T10:07:21;2.05;;;1.95;;
16330;SDS011;8275;48.206;16.340;2023-08-06T10:09:51;4.15;;;1.90;;
16330;SDS011;8275;48.206;16.340;2023-08-06T10:12:19;2.55;;;2.08;;
16330;SDS011;8275;48.206;16.340;2023-08-06T10:14:48;2.67;;;2.47;;
16330;SDS011;8275;48.206;16.340;2023-08-06T10:17:20;2.40;;;2.30;;
16330;SDS011;8275;48.206;16.340;2023-08-06T10:20:04;4.13;;;2.33;;
16330;SDS011;8275;48.206;16.340;2023-08-06T10:22:35;3.85;;;3.55;;
16330;SDS011;8275;48.206;16.340;2023-08-06T10:25:04;5.00;;;3.13;;
16330;SDS011;8275;48.206;16.340;2023-08-06T10:27:34;2.72;;;2.47;;
16330;SDS011;8275;48.206;16.340;2023-08-06T10:32:52;3.65;;;2.67;;
16330;SDS011;8275;48.206;16.340;2023-08-06T10:35:34;3.88;;;2.80;;
16330;SDS011;8275;48.206;16.340;2023-08-06T10:38:04;3.38;;;2.83;;
16330;SDS011;8275;48.206;16.340;2023-08-06T10:40:36;2.47;;;2.38;;
16330;SDS011;8275;48.206;16.340;2023-08-06T10:43:24;3.08;;;2.88;;
16330;SDS011;8275;48.206;16.340;2023-08-06T10:45:54;4.05;;;3.53;;
16330;SDS011;8275;48.206;16.340;2023-08-06T10:48:33;3.30;;;3.03;;
16330;SDS011;8275;48.206;16.340;2023-08-06T10:51:06;3.50;;;3.28;;
16330;SDS011;8275;48.206;16.340;2023-08-06T10:53:36;2.97;;;2.78;;
16330;SDS011;8275;48.206;16.340;2023-08-06T10:56:11;2.60;;;2.47;;
16330;SDS011;8275;48.206;16.340;2023-08-06T10:58:40;6.07;;;3.08;;
16330;SDS011;8275;48.206;16.340;2023-08-06T11:01:09;2.80;;;2.60;;
16330;SDS011;8275;48.206;16.340;2023-08-06T11:03:39;2.80;;;2.45;;
16330;SDS011;8275;48.206;16.340;2023-08-06T11:06:10;3.80;;;3.28;;
16330;SDS011;8275;48.206;16.340;2023-08-06T11:08:47;2.97;;;2.78;;
16330;SDS011;8275;48.206;16.340;2023-08-06T11:11:17;3.40;;;2.75;;
16330;SDS011;8275;48.206;16.340;2023-08-06T11:13:47;3.42;;;2.28;;
16330;SDS011;8275;48.206;16.340;2023-08-06T11:16:18;5.30;;;2.55;;
16330;SDS011;8275;48.206;16.340;2023-08-06T11:18:49;3.25;;;2.95;;
16330;SDS011;8275;48.206;16.340;2023-08-06T11:21:20;3.40;;;2.80;;
16330;SDS011;8275;48.206;16.340;2023-08-06T11:23:51;2.90;;;2.70;;
16330;SDS011;8275;48.206;16.340;2023-08-06T11:26:20;6.10;;;2.95;;
16330;SDS011;8275;48.206;16.340;2023-08-06T11:28:50;3.17;;;2.97;;
16330;SDS011;8275;48.206;16.340;2023-08-06T11:31:19;3.30;;;3.10;;
16330;SDS011;8275;48.206;16.340;2023-08-06T11:33:49;2.78;;;2.58;;
16330;SDS011;8275;48.206;16.340;2023-08-06T11:36:29;4.75;;;3.00;;
16330;SDS011;8275;48.206;16.340;2023-08-06T11:38:58;8.18;;;2.40;;
16330;SDS011;8275;48.206;16.340;2023-08-06T11:41:29;2.53;;;2.33;;
16330;SDS011;8275;48.206;16.340;2023-08-06T11:43:58;2.30;;;2.20;;
16330;SDS011;8275;48.206;16.340;2023-08-06T11:46:27;2.30;;;2.20;;
16330;SDS011;8275;48.206;16.340;2023-08-06T11:48:56;2.67;;;2.47;;
16330;SDS011;8275;48.206;16.340;2023-08-06T11:51:26;2.90;;;2.38;;
16330;SDS011;8275;48.206;16.340;2023-08-06T11:53:57;3.60;;;3.30;;
16330;SDS011;8275;48.206;16.340;2023-08-06T11:56:26;3.30;;;2.95;;
16330;SDS011;8275;48.206;16.340;2023-08-06T11:58:55;4.60;;;4.20;;
16330;SDS011;8275;48.206;16.340;2023-08-06T12:01:25;2.78;;;2.58;;
16330;SDS011;8275;48.206;16.340;2023-08-06T12:03:58;6.18;;;5.45;;
16330;SDS011;8275;48.206;16.340;2023-08-06T12:06:26;2.90;;;2.70;;
16330;SDS011;8275;48.206;16.340;2023-08-06T12:08:56;4.40;;;2.70;;
16330;SDS011;8275;48.206;16.340;2023-08-06T12:11:25;2.70;;;2.50;;
16330;SDS011;8275;48.206;16.340;2023-08-06T12:13:54;2.63;;;2.10;;
16330;SDS011;8275;48.206;16.340;2023-08-06T12:16:23;3.60;;;3.10;;
16330;SDS011;8275;48.206;16.340;2023-08-06T12:18:52;3.08;;;2.78;;
16330;SDS011;8275;48.206;16.340;2023-08-06T12:21:21;2.78;;;2.58;;
16330;SDS011;8275;48.206;16.340;2023-08-06T12:23:49;2.83;;;2.63;;
16330;SDS011;8275;48.206;16.340;2023-08-06T12:26:19;3.28;;;2.45;;
16330;SDS011;8275;48.206;16.340;2023-08-06T12:28:47;2.30;;;2.10;;
16330;SDS011;8275;48.206;16.340;2023-08-06T12:31:16;2.88;;;2.67;;
16330;SDS011;8275;48.206;16.340;2023-08-06T12:33:45;2.55;;;2.35;;
16330;SDS011;8275;48.206;16.340;2023-08-06T12:36:13;3.15;;;2.80;;
16330;SDS011;8275;48.206;16.340;2023-08-06T12:38:42;2.28;;;2.17;;
16330;SDS011;8275;48.206;16.340;2023-08-06T12:41:10;2.78;;;2.58;;
16330;SDS011;8275;48.206;16.340;2023-08-06T12:43:40;2.65;;;2.45;;
16330;SDS011;8275;48.206;16.340;2023-08-06T12:46:09;2.83;;;2.63;;
16330;SDS011;8275;48.206;16.340;2023-08-06T12:48:38;4.85;;;2.97;;
16330;SDS011;8275;48.206;16.340;2023-08-06T12:51:07;2.92;;;2.60;;
16330;SDS011;8275;48.206;16.340;2023-08-06T12:53:35;2.85;;;2.65;;
16330;SDS011;8275;48.206;16.340;2023-08-06T12:56:04;3.88;;;2.90;;
16330;SDS011;8275;48.206;16.340;2023-08-06T12:58:33;2.90;;;2.65;;
16330;SDS011;8275;48.206;16.340;2023-08-06T13:01:03;3.13;;;2.65;;
16330;SDS011;8275;48.206;16.340;2023-08-06T13:03:33;3.25;;;2.95;;
16330;SDS011;8275;48.206;16.340;2023-08-06T13:06:02;4.30;;;3.20;;
16330;SDS011;8275;48.206;16.340;2023-08-06T13:08:32;3.67;;;2.60;;
16330;SDS011;8275;48.206;16.340;2023-08-06T13:11:01;3.13;;;2.75;;
16330;SDS011;8275;48.206;16.340;2023-08-06T13:13:30;2.85;;;2.63;;
16330;SDS011;8275;48.206;16.340;2023-08-06T13:15:59;3.40;;;3.20;;
16330;SDS011;8275;48.206;16.340;2023-08-06T13:18:31;2.75;;;2.55;;
16330;SDS011;8275;48.206;16.340;2023-08-06T13:21:00;3.45;;;3.17;;
16330;SDS011;8275;48.206;16.340;2023-08-06T13:23:30;3.15;;;2.88;;
16330;SDS011;8275;48.206;16.340;2023-08-06T13:26:01;3.70;;;3.40;;
16330;SDS011;8275;48.206;16.340;2023-08-06T13:28:31;3.35;;;2.72;;
16330;SDS011;8275;48.206;16.340;2023-08-06T13:31:01;3.35;;;3.05;;
16330;SDS011;8275;48.206;16.340;2023-08-06T13:33:32;3.20;;;2.90;;
16330;SDS011;8275;48.206;16.340;2023-08-06T13:36:02;4.18;;;2.75;;
16330;SDS011;8275;48.206;16.340;2023-08-06T13:38:33;3.00;;;2.70;;
16330;SDS011;8275;48.206;16.340;2023-08-06T13:41:03;3.17;;;2.97;;
16330;SDS011;8275;48.206;16.340;2023-08-06T13:43:32;3.10;;;2.90;;
16330;SDS011;8275;48.206;16.340;2023-08-06T13:46:02;3.75;;;2.78;;
16330;SDS011;8275;48.206;16.340;2023-08-06T13:48:33;4.13;;;2.60;;
16330;SDS011;8275;48.206;16.340;2023-08-06T13:51:03;2.53;;;2.33;;
16330;SDS011;8275;48.206;16.340;2023-08-06T13:53:33;2.35;;;2.15;;
16330;SDS011;8275;48.206;16.340;2023-08-06T13:56:03;2.00;;;1.90;;
16330;SDS011;8275;48.206;16.340;2023-08-06T13:58:34;2.30;;;2.10;;
16330;SDS011;8275;48.206;16.340;2023-08-06T14:01:04;2.97;;;2.78;;
16330;SDS011;8275;48.206;16.340;2023-08-06T14:03:35;4.40;;;2.40;;
16330;SDS011;8275;48.206;16.340;2023-08-06T14:06:04;4.22;;;2.70;;
16330;SDS011;8275;48.206;16.340;2023-08-06T14:08:36;2.40;;;2.20;;
16330;SDS011;8275;48.206;16.340;2023-08-06T14:11:05;4.03;;;1.88;;
16330;SDS011;8275;48.206;16.340;2023-08-06T14:13:34;1.50;;;1.35;;
16330;SDS011;8275;48.206;16.340;2023-08-06T14:16:04;2.17;;;1.83;;
16330;SDS011;8275;48.206;16.340;2023-08-06T14:18:36;1.70;;;1.60;;
16330;SDS011;8275;48.206;16.340;2023-08-06T14:21:07;1.50;;;1.40;;
16330;SDS011;8275;48.206;16.340;2023-08-06T14:23:37;1.45;;;1.30;;
16330;SDS011;8275;48.206;16.340;2023-08-06T14:26:08;2.17;;;1.60;;
16330;SDS011;8275;48.206;16.340;2023-08-06T14:28:38;1.88;;;1.77;;
16330;SDS011;8275;48.206;16.340;2023-08-06T14:31:07;1.40;;;1.30;;
16330;SDS011;8275;48.206;16.340;2023-08-06T14:33:38;1.65;;;1.55;;
16330;SDS011;8275;48.206;16.340;2023-08-06T14:36:07;2.45;;;1.50;;
16330;SDS011;8275;48.206;16.340;2023-08-06T14:38:37;1.70;;;1.20;;
16330;SDS011;8275;48.206;16.340;2023-08-06T14:41:23;6.32;;;1.92;;
16330;SDS011;8275;48.206;16.340;2023-08-06T14:43:55;1.95;;;1.75;;
16330;SDS011;8275;48.206;16.340;2023-08-06T14:46:24;1.63;;;1.52;;
16330;SDS011;8275;48.206;16.340;2023-08-06T14:48:56;1.67;;;1.58;;
16330;SDS011;8275;48.206;16.340;2023-08-06T14:51:27;3.80;;;2.28;;
16330;SDS011;8275;48.206;16.340;2023-08-06T14:53:55;2.33;;;2.10;;
16330;SDS011;8275;48.206;16.340;2023-08-06T14:56:26;3.33;;;1.85;;
16330;SDS011;8275;48.206;16.340;2023-08-06T14:58:56;1.58;;;1.48;;
16330;SDS011;8275;48.206;16.340;2023-08-06T15:01:26;1.67;;;0.90;;
16330;SDS011;8275;48.206;16.340;2023-08-06T15:03:58;1.83;;;1.10;;
16330;SDS011;8275;48.206;16.340;2023-08-06T15:06:33;1.45;;;1.35;;